createdAt,value
2023-05-17T00:00:08.807Z,0.00
2023-05-17T00:01:07.798Z,0.00
2023-05-17T00:02:07.782Z,0.00
2023-05-17T00:03:07.790Z,0.00
2023-05-17T00:04:07.763Z,0.00
2023-05-17T00:05:07.787Z,0.00
2023-05-17T00:06:07.808Z,0.00
2023-05-17T00:07:07.755Z,0.00
2023-05-17T00:08:07.780Z,0.00
2023-05-17T00:09:07.778Z,0.00
2023-05-17T00:10:07.777Z,0.00
2023-05-17T00:11:07.758Z,0.00
2023-05-17T00:12:08.434Z,0.00
2023-05-17T00:13:07.722Z,0.00
2023-05-17T00:14:07.771Z,0.00
2023-05-17T00:15:07.735Z,0.00
2023-05-17T00:16:07.761Z,0.00
2023-05-17T00:17:07.740Z,0.00
2023-05-17T00:18:07.806Z,0.00
2023-05-17T00:19:07.872Z,0.00
2023-05-17T00:20:07.810Z,0.00
2023-05-17T00:21:07.668Z,0.00
2023-05-17T00:22:07.708Z,0.00
2023-05-17T00:23:07.672Z,0.00
2023-05-17T00:24:07.636Z,0.00
2023-05-17T00:25:07.670Z,0.00
2023-05-17T00:26:07.630Z,0.00
2023-05-17T00:27:07.631Z,0.00
2023-05-17T00:28:07.630Z,0.00
2023-05-17T00:29:07.654Z,0.00
2023-05-17T00:30:07.733Z,0.00
2023-05-17T00:31:07.602Z,0.00
2023-05-17T00:32:07.625Z,0.00
2023-05-17T00:33:07.741Z,0.00
2023-05-17T00:34:07.604Z,0.00
2023-05-17T00:35:07.617Z,0.00
2023-05-17T00:36:07.577Z,0.00
2023-05-17T00:37:07.565Z,0.00
2023-05-17T00:38:08.504Z,0.00
2023-05-17T00:39:07.585Z,0.00
2023-05-17T00:40:07.570Z,0.00
2023-05-17T00:41:07.569Z,0.00
2023-05-17T00:42:07.554Z,0.00
2023-05-17T00:43:07.534Z,0.00
2023-05-17T00:44:07.525Z,0.00
2023-05-17T00:45:07.549Z,0.00
2023-05-17T00:46:07.649Z,0.00
2023-05-17T00:47:07.620Z,0.00
2023-05-17T00:48:07.555Z,0.00
2023-05-17T00:49:07.504Z,0.00
2023-05-17T00:50:07.570Z,0.00
2023-05-17T00:51:07.484Z,0.00
2023-05-17T00:52:07.500Z,0.00
2023-05-17T00:53:07.506Z,0.00
2023-05-17T00:54:07.485Z,0.00
2023-05-17T00:55:07.508Z,0.00
2023-05-17T00:56:07.451Z,0.00
2023-05-17T00:57:07.458Z,0.00
2023-05-17T00:58:07.441Z,0.00
2023-05-17T00:59:07.464Z,0.00
2023-05-17T01:00:07.434Z,0.00
2023-05-17T01:01:07.439Z,0.00
2023-05-17T01:02:07.615Z,0.00
2023-05-17T01:03:07.479Z,0.00
2023-05-17T01:04:07.606Z,0.00
2023-05-17T01:05:07.544Z,0.00
2023-05-17T01:06:07.402Z,0.00
2023-05-17T01:07:07.372Z,0.00
2023-05-17T01:08:07.400Z,0.00
2023-05-17T01:09:07.356Z,0.00
2023-05-17T01:10:07.392Z,0.00
2023-05-17T01:11:07.347Z,0.00
2023-05-17T01:12:07.334Z,0.00
2023-05-17T01:13:07.342Z,0.00
2023-05-17T01:14:07.331Z,0.00
2023-05-17T01:15:07.597Z,0.00
2023-05-17T01:16:07.333Z,0.00
2023-05-17T01:17:07.307Z,0.00
2023-05-17T01:18:07.532Z,0.00
2023-05-17T01:19:07.346Z,0.00
2023-05-17T01:20:08.500Z,0.00
2023-05-17T01:21:07.342Z,0.00
2023-05-17T01:22:07.277Z,0.00
2023-05-17T01:23:07.269Z,0.00
2023-05-17T01:24:07.274Z,0.00
2023-05-17T01:25:07.290Z,0.00
2023-05-17T01:26:07.291Z,0.00
2023-05-17T01:27:07.270Z,0.00
2023-05-17T01:28:07.274Z,0.00
2023-05-17T01:29:08.278Z,0.00
2023-05-17T01:30:07.249Z,0.00
2023-05-17T01:31:07.226Z,0.00
2023-05-17T01:32:07.244Z,0.00
2023-05-17T01:33:07.376Z,0.00
2023-05-17T01:34:07.415Z,0.00
2023-05-17T01:35:07.204Z,0.00
2023-05-17T01:36:07.214Z,0.00
2023-05-17T01:37:07.211Z,0.00
2023-05-17T01:38:07.196Z,0.00
2023-05-17T01:39:07.183Z,0.00
2023-05-17T01:40:07.187Z,0.00
2023-05-17T01:41:07.189Z,0.00
2023-05-17T01:42:07.173Z,0.00
2023-05-17T01:43:07.187Z,0.00
2023-05-17T01:44:07.152Z,0.00
2023-05-17T01:45:07.196Z,0.00
2023-05-17T01:46:07.139Z,0.00
2023-05-17T01:47:07.131Z,0.00
2023-05-17T01:48:07.229Z,0.00
2023-05-17T01:49:07.164Z,0.00
2023-05-17T01:50:07.207Z,0.00
2023-05-17T01:51:07.137Z,0.00
2023-05-17T01:52:07.187Z,0.00
2023-05-17T01:53:07.122Z,0.00
2023-05-17T01:54:07.075Z,0.00
2023-05-17T01:55:07.100Z,0.00
2023-05-17T01:56:07.728Z,0.00
2023-05-17T01:57:07.074Z,0.00
2023-05-17T01:58:07.068Z,0.00
2023-05-17T01:59:08.100Z,0.00
2023-05-17T02:00:07.071Z,0.00
2023-05-17T02:01:07.038Z,0.00
2023-05-17T02:02:07.535Z,0.00
2023-05-17T02:03:07.023Z,0.00
2023-05-17T02:04:07.117Z,0.00
2023-05-17T02:05:07.138Z,0.00
2023-05-17T02:06:07.091Z,0.00
2023-05-17T02:07:07.029Z,0.00
2023-05-17T02:08:07.018Z,0.00
2023-05-17T02:09:06.992Z,0.00
2023-05-17T02:10:07.002Z,0.00
2023-05-17T02:11:07.098Z,0.00
2023-05-17T02:12:07.020Z,0.00
2023-05-17T02:13:07.050Z,0.00
2023-05-17T02:14:12.436Z,0.00
2023-05-17T02:15:08.918Z,0.00
2023-05-17T02:16:06.942Z,0.00
2023-05-17T02:17:06.965Z,0.00
2023-05-17T02:18:07.093Z,0.00
2023-05-17T02:19:06.953Z,0.00
2023-05-17T02:20:06.949Z,0.00
2023-05-17T02:21:06.945Z,0.00
2023-05-17T02:22:07.578Z,0.00
2023-05-17T02:23:06.945Z,0.00
2023-05-17T02:24:06.915Z,0.00
2023-05-17T02:25:06.977Z,0.00
2023-05-17T02:26:06.932Z,0.00
2023-05-17T02:27:06.896Z,0.00
2023-05-17T02:28:06.909Z,0.00
2023-05-17T02:29:06.902Z,0.00
2023-05-17T02:30:06.902Z,0.00
2023-05-17T02:31:06.865Z,0.00
2023-05-17T02:32:06.870Z,0.00
2023-05-17T02:33:06.951Z,0.00
2023-05-17T02:34:06.865Z,0.00
2023-05-17T02:35:06.912Z,0.00
2023-05-17T02:36:06.844Z,0.00
2023-05-17T02:37:06.871Z,0.00
2023-05-17T02:38:06.963Z,0.00
2023-05-17T02:39:06.833Z,0.00
2023-05-17T02:40:06.860Z,0.00
2023-05-17T02:41:06.816Z,0.00
2023-05-17T02:42:06.810Z,0.00
2023-05-17T02:43:06.795Z,0.00
2023-05-17T02:44:06.788Z,0.00
2023-05-17T02:45:06.817Z,0.00
2023-05-17T02:46:06.777Z,0.00
2023-05-17T02:47:06.794Z,0.00
2023-05-17T02:48:06.820Z,0.00
2023-05-17T02:49:06.763Z,0.00
2023-05-17T02:50:06.776Z,0.00
2023-05-17T02:51:06.730Z,0.00
2023-05-17T02:52:06.795Z,0.00
2023-05-17T02:53:06.741Z,0.00
2023-05-17T02:54:06.842Z,0.00
2023-05-17T02:55:06.819Z,0.00
2023-05-17T02:56:06.726Z,0.00
2023-05-17T02:57:06.731Z,0.00
2023-05-17T02:58:06.793Z,0.00
2023-05-17T02:59:07.706Z,0.00
2023-05-17T03:00:06.710Z,0.00
2023-05-17T03:01:06.682Z,0.00
2023-05-17T03:02:06.682Z,0.00
2023-05-17T03:03:06.831Z,0.00
2023-05-17T03:04:06.734Z,0.00
2023-05-17T03:05:06.718Z,0.00
2023-05-17T03:06:06.643Z,0.00
2023-05-17T03:07:07.228Z,0.00
2023-05-17T03:08:06.694Z,0.00
2023-05-17T03:09:06.687Z,0.00
2023-05-17T03:10:06.700Z,0.00
2023-05-17T03:11:06.648Z,0.00
2023-05-17T03:12:06.638Z,0.00
2023-05-17T03:13:06.669Z,0.00
2023-05-17T03:14:06.598Z,0.00
2023-05-17T03:15:06.610Z,0.00
2023-05-17T03:16:06.633Z,0.00
2023-05-17T03:17:06.603Z,0.00
2023-05-17T03:18:06.769Z,0.00
2023-05-17T03:19:06.741Z,0.00
2023-05-17T03:20:06.570Z,0.00
2023-05-17T03:21:06.576Z,0.00
2023-05-17T03:22:06.614Z,0.00
2023-05-17T03:23:06.549Z,0.00
2023-05-17T03:24:06.549Z,0.00
2023-05-17T03:25:06.513Z,0.00
2023-05-17T03:26:06.658Z,0.00
2023-05-17T03:27:06.629Z,0.00
2023-05-17T03:28:06.555Z,0.00
2023-05-17T03:29:06.512Z,0.00
2023-05-17T03:30:06.501Z,0.00
2023-05-17T03:31:06.586Z,0.00
2023-05-17T03:32:06.479Z,0.00
2023-05-17T03:33:06.565Z,0.00
2023-05-17T03:34:06.655Z,0.00
2023-05-17T03:35:07.475Z,5.62
2023-05-17T03:36:06.457Z,0.00
2023-05-17T03:37:06.488Z,0.00
2023-05-17T03:38:06.449Z,0.00
2023-05-17T03:39:06.458Z,5.62
2023-05-17T03:40:06.644Z,5.62
2023-05-17T03:41:06.428Z,5.62
2023-05-17T03:42:06.599Z,5.62
2023-05-17T03:43:06.451Z,5.62
2023-05-17T03:44:06.468Z,5.62
2023-05-17T03:45:06.454Z,5.62
2023-05-17T03:46:06.417Z,5.62
2023-05-17T03:47:06.430Z,5.62
2023-05-17T03:48:06.440Z,5.62
2023-05-17T03:49:06.452Z,5.62
2023-05-17T03:50:06.380Z,11.25
2023-05-17T03:51:06.430Z,11.25
2023-05-17T03:52:06.374Z,11.25
2023-05-17T03:53:06.369Z,11.25
2023-05-17T03:54:06.367Z,11.25
2023-05-17T03:55:06.360Z,16.88
2023-05-17T03:56:06.379Z,16.88
2023-05-17T03:57:06.384Z,16.88
2023-05-17T03:58:06.433Z,16.88
2023-05-17T03:59:06.337Z,22.50
2023-05-17T04:00:06.324Z,22.50
2023-05-17T04:01:06.328Z,22.50
2023-05-17T04:02:06.304Z,22.50
2023-05-17T04:03:06.351Z,22.50
2023-05-17T04:04:06.372Z,22.50
2023-05-17T04:05:06.341Z,22.50
2023-05-17T04:06:06.277Z,22.50
2023-05-17T04:07:06.291Z,22.50
2023-05-17T04:08:06.277Z,22.50
2023-05-17T04:09:06.301Z,22.50
2023-05-17T04:10:06.257Z,22.50
2023-05-17T04:11:06.289Z,22.50
2023-05-17T04:12:06.252Z,22.50
2023-05-17T04:13:06.263Z,22.50
2023-05-17T04:14:06.407Z,22.50
2023-05-17T04:15:06.246Z,22.50
2023-05-17T04:16:06.213Z,22.50
2023-05-17T04:17:06.218Z,28.12
2023-05-17T04:18:06.352Z,33.75
2023-05-17T04:19:06.292Z,33.75
2023-05-17T04:20:06.222Z,33.75
2023-05-17T04:21:06.222Z,39.38
2023-05-17T04:22:06.176Z,33.75
2023-05-17T04:23:06.165Z,33.75
2023-05-17T04:24:06.200Z,33.75
2023-05-17T04:25:06.202Z,33.75
2023-05-17T04:26:06.241Z,33.75
2023-05-17T04:27:06.258Z,33.75
2023-05-17T04:28:06.172Z,28.12
2023-05-17T04:29:06.163Z,33.75
2023-05-17T04:30:06.229Z,33.75
2023-05-17T04:31:06.157Z,33.75
2023-05-17T04:32:06.125Z,39.38
2023-05-17T04:33:06.181Z,45.00
2023-05-17T04:34:06.251Z,45.00
2023-05-17T04:35:06.171Z,45.00
2023-05-17T04:36:06.133Z,45.00
2023-05-17T04:37:06.130Z,45.00
2023-05-17T04:38:06.108Z,45.00
2023-05-17T04:39:06.101Z,39.38
2023-05-17T04:40:06.077Z,33.75
2023-05-17T04:41:06.096Z,33.75
2023-05-17T04:42:06.074Z,39.38
2023-05-17T04:43:06.128Z,39.38
2023-05-17T04:44:06.098Z,39.38
2023-05-17T04:45:06.190Z,45.00
2023-05-17T04:46:06.157Z,45.00
2023-05-17T04:47:06.029Z,39.38
2023-05-17T04:48:06.123Z,39.38
2023-05-17T04:49:06.075Z,39.38
2023-05-17T04:50:06.026Z,39.38
2023-05-17T04:51:06.005Z,45.00
2023-05-17T04:52:06.293Z,50.62
2023-05-17T04:53:06.997Z,56.25
2023-05-17T04:54:06.048Z,56.25
2023-05-17T04:55:06.015Z,50.62
2023-05-17T04:56:06.013Z,45.00
2023-05-17T04:57:06.006Z,45.00
2023-05-17T04:58:06.023Z,50.62
2023-05-17T04:59:06.049Z,50.62
2023-05-17T05:00:05.983Z,56.25
2023-05-17T05:01:07.017Z,67.50
2023-05-17T05:02:06.030Z,67.50
2023-05-17T05:03:06.037Z,73.12
2023-05-17T05:04:06.167Z,78.75
2023-05-17T05:05:05.990Z,84.38
2023-05-17T05:06:05.951Z,90.00
2023-05-17T05:07:05.926Z,90.00
2023-05-17T05:08:05.978Z,95.62
2023-05-17T05:09:05.924Z,95.62
2023-05-17T05:10:05.874Z,95.62
2023-05-17T05:11:09.365Z,95.62
2023-05-17T05:12:07.492Z,101.25
2023-05-17T05:13:08.088Z,101.25
2023-05-17T05:14:07.507Z,106.88
2023-05-17T05:15:08.823Z,112.50
2023-05-17T05:16:09.337Z,112.50
2023-05-17T05:17:07.333Z,101.25
2023-05-17T05:18:10.393Z,101.25
2023-05-17T05:19:07.778Z,101.25
2023-05-17T05:20:10.058Z,112.50
2023-05-17T05:21:08.912Z,118.12
2023-05-17T05:22:07.260Z,118.12
2023-05-17T05:23:10.102Z,112.50
2023-05-17T05:24:07.741Z,106.88
2023-05-17T05:25:07.409Z,106.88
2023-05-17T05:26:09.055Z,118.12
2023-05-17T05:27:07.356Z,135.00
2023-05-17T05:28:10.003Z,146.25
2023-05-17T05:29:05.799Z,157.50
2023-05-17T05:30:05.795Z,163.12
2023-05-17T05:31:05.805Z,168.75
2023-05-17T05:32:05.788Z,174.38
2023-05-17T05:33:05.865Z,180.00
2023-05-17T05:34:05.986Z,185.62
2023-05-17T05:35:05.777Z,196.88
2023-05-17T05:36:05.759Z,191.25
2023-05-17T05:37:05.744Z,196.88
2023-05-17T05:38:06.416Z,191.25
2023-05-17T05:39:07.858Z,196.88
2023-05-17T05:40:05.760Z,202.50
2023-05-17T05:41:05.726Z,202.50
2023-05-17T05:42:05.728Z,196.88
2023-05-17T05:43:05.722Z,202.50
2023-05-17T05:44:05.692Z,208.12
2023-05-17T05:45:05.709Z,247.50
2023-05-17T05:46:05.687Z,236.25
2023-05-17T05:47:05.687Z,213.75
2023-05-17T05:48:05.878Z,213.75
2023-05-17T05:49:05.753Z,213.75
2023-05-17T05:50:05.929Z,219.38
2023-05-17T05:51:05.801Z,258.75
2023-05-17T05:52:05.667Z,270.00
2023-05-17T05:53:17.099Z,275.62
2023-05-17T05:54:07.641Z,286.88
2023-05-17T05:55:05.675Z,275.62
2023-05-17T05:56:05.640Z,309.38
2023-05-17T05:57:05.629Z,320.62
2023-05-17T05:58:05.636Z,331.88
2023-05-17T05:59:05.628Z,331.88
2023-05-17T06:00:05.619Z,320.62
2023-05-17T06:01:06.504Z,309.38
2023-05-17T06:02:06.635Z,303.75
2023-05-17T06:03:05.642Z,320.62
2023-05-17T06:04:05.627Z,298.12
2023-05-17T06:05:05.687Z,264.38
2023-05-17T06:06:05.834Z,253.12
2023-05-17T06:07:05.592Z,230.62
2023-05-17T06:08:05.589Z,213.75
2023-05-17T06:09:05.587Z,202.50
2023-05-17T06:10:05.576Z,196.88
2023-05-17T06:11:05.548Z,196.88
2023-05-17T06:12:05.630Z,191.25
2023-05-17T06:13:05.579Z,202.50
2023-05-17T06:14:05.578Z,213.75
2023-05-17T06:15:05.539Z,225.00
2023-05-17T06:16:05.525Z,230.62
2023-05-17T06:17:05.510Z,230.62
2023-05-17T06:18:05.538Z,225.00
2023-05-17T06:19:05.578Z,219.38
2023-05-17T06:20:05.513Z,213.75
2023-05-17T06:21:05.491Z,219.38
2023-05-17T06:22:05.477Z,225.00
2023-05-17T06:23:05.463Z,219.38
2023-05-17T06:24:05.558Z,213.75
2023-05-17T06:25:05.488Z,208.12
2023-05-17T06:26:05.460Z,213.75
2023-05-17T06:27:06.449Z,219.38
2023-05-17T06:28:05.440Z,213.75
2023-05-17T06:29:05.437Z,225.00
2023-05-17T06:30:07.262Z,236.25
2023-05-17T06:31:06.435Z,236.25
2023-05-17T06:32:05.447Z,247.50
2023-05-17T06:33:05.472Z,258.75
2023-05-17T06:34:05.606Z,275.62
2023-05-17T06:35:05.406Z,281.25
2023-05-17T06:36:05.375Z,286.88
2023-05-17T06:37:05.380Z,286.88
2023-05-17T06:38:05.569Z,292.50
2023-05-17T06:39:05.362Z,315.00
2023-05-17T06:40:14.968Z,326.25
2023-05-17T06:41:07.428Z,354.38
2023-05-17T06:42:05.369Z,410.62
2023-05-17T06:43:05.494Z,427.50
2023-05-17T06:44:06.047Z,433.12
2023-05-17T06:45:06.047Z,438.75
2023-05-17T06:46:05.380Z,444.38
2023-05-17T06:47:05.361Z,416.25
2023-05-17T06:48:05.448Z,405.00
2023-05-17T06:49:05.415Z,399.38
2023-05-17T06:50:05.342Z,421.88
2023-05-17T06:51:05.312Z,427.50
2023-05-17T06:52:05.310Z,410.62
2023-05-17T06:53:05.283Z,382.50
2023-05-17T06:54:05.335Z,376.88
2023-05-17T06:55:05.274Z,365.62
2023-05-17T06:56:05.282Z,354.38
2023-05-17T06:57:05.238Z,337.50
2023-05-17T06:58:05.269Z,326.25
2023-05-17T06:59:05.233Z,309.38
2023-05-17T07:00:05.236Z,292.50
2023-05-17T07:01:05.268Z,270.00
2023-05-17T07:02:05.216Z,241.88
2023-05-17T07:03:05.308Z,219.38
2023-05-17T07:04:05.269Z,196.88
2023-05-17T07:05:05.247Z,185.62
2023-05-17T07:06:05.187Z,219.38
2023-05-17T07:07:05.217Z,185.62
2023-05-17T07:08:05.192Z,185.62
2023-05-17T07:09:05.182Z,202.50
2023-05-17T07:10:05.238Z,281.25
2023-05-17T07:11:05.180Z,258.75
2023-05-17T07:12:05.368Z,264.38
2023-05-17T07:13:05.178Z,258.75
2023-05-17T07:14:05.157Z,253.12
2023-05-17T07:15:05.123Z,270.00
2023-05-17T07:16:05.118Z,298.12
2023-05-17T07:17:05.134Z,371.25
2023-05-17T07:18:05.271Z,320.62
2023-05-17T07:19:05.181Z,309.38
2023-05-17T07:20:05.211Z,315.00
2023-05-17T07:21:05.111Z,315.00
2023-05-17T07:22:05.071Z,320.62
2023-05-17T07:23:05.116Z,568.12
2023-05-17T07:24:05.139Z,590.62
2023-05-17T07:25:05.065Z,405.00
2023-05-17T07:26:05.189Z,416.25
2023-05-17T07:27:05.061Z,410.62
2023-05-17T07:28:05.133Z,399.38
2023-05-17T07:29:05.051Z,405.00
2023-05-17T07:30:05.044Z,714.38
2023-05-17T07:31:05.034Z,798.75
2023-05-17T07:32:05.064Z,821.25
2023-05-17T07:33:05.029Z,866.25
2023-05-17T07:34:05.041Z,883.12
2023-05-17T07:35:05.021Z,945.00
2023-05-17T07:36:05.104Z,978.75
2023-05-17T07:37:05.007Z,928.12
2023-05-17T07:38:04.966Z,928.12
2023-05-17T07:39:04.997Z,967.50
2023-05-17T07:40:04.998Z,551.25
2023-05-17T07:41:05.553Z,511.88
2023-05-17T07:42:05.668Z,517.50
2023-05-17T07:43:05.951Z,731.25
2023-05-17T07:44:05.151Z,438.75
2023-05-17T07:45:04.949Z,444.38
2023-05-17T07:46:04.921Z,455.62
2023-05-17T07:47:04.997Z,455.62
2023-05-17T07:48:05.195Z,877.50
2023-05-17T07:49:05.094Z,1108.12
2023-05-17T07:50:04.921Z,1119.38
2023-05-17T07:51:04.991Z,1136.25
2023-05-17T07:52:05.032Z,618.75
2023-05-17T07:53:04.925Z,646.88
2023-05-17T07:54:04.897Z,736.88
2023-05-17T07:55:04.873Z,545.62
2023-05-17T07:56:05.885Z,495.00
2023-05-17T07:57:04.849Z,466.88
2023-05-17T07:58:05.863Z,461.25
2023-05-17T07:59:04.988Z,472.50
2023-05-17T08:00:04.879Z,506.25
2023-05-17T08:01:04.818Z,579.38
2023-05-17T08:02:04.880Z,703.12
2023-05-17T08:03:04.858Z,888.75
2023-05-17T08:04:04.884Z,2131.88
2023-05-17T08:05:04.818Z,2221.88
2023-05-17T08:06:04.888Z,916.88
2023-05-17T08:07:04.851Z,725.62
2023-05-17T08:08:04.791Z,871.88
2023-05-17T08:09:05.085Z,838.12
2023-05-17T08:10:04.817Z,736.88
2023-05-17T08:11:04.772Z,556.88
2023-05-17T08:12:04.802Z,489.38
2023-05-17T08:13:04.814Z,478.12
2023-05-17T08:14:05.525Z,427.50
2023-05-17T08:15:04.830Z,421.88
2023-05-17T08:16:12.675Z,455.62
2023-05-17T08:17:06.777Z,416.25
2023-05-17T08:18:05.613Z,393.75
2023-05-17T08:19:04.891Z,382.50
2023-05-17T08:20:04.841Z,365.62
2023-05-17T08:21:04.763Z,360.00
2023-05-17T08:22:04.731Z,371.25
2023-05-17T08:23:04.744Z,382.50
2023-05-17T08:24:04.708Z,393.75
2023-05-17T08:25:04.739Z,416.25
2023-05-17T08:26:04.709Z,427.50
2023-05-17T08:27:04.705Z,433.12
2023-05-17T08:28:04.717Z,444.38
2023-05-17T08:29:05.389Z,489.38
2023-05-17T08:30:09.039Z,489.38
2023-05-17T08:31:06.719Z,495.00
2023-05-17T08:32:04.661Z,517.50
2023-05-17T08:33:04.731Z,556.88
2023-05-17T08:34:04.771Z,596.25
2023-05-17T08:35:04.704Z,624.38
2023-05-17T08:36:04.670Z,798.75
2023-05-17T08:37:04.669Z,922.50
2023-05-17T08:38:04.627Z,1440.00
2023-05-17T08:39:04.680Z,731.25
2023-05-17T08:40:04.752Z,714.38
2023-05-17T08:41:04.653Z,624.38
2023-05-17T08:42:04.599Z,624.38
2023-05-17T08:43:04.602Z,590.62
2023-05-17T08:44:04.595Z,523.12
2023-05-17T08:45:04.627Z,472.50
2023-05-17T08:46:04.589Z,450.00
2023-05-17T08:47:04.603Z,455.62
2023-05-17T08:48:04.612Z,444.38
2023-05-17T08:49:04.598Z,461.25
2023-05-17T08:50:04.555Z,472.50
2023-05-17T08:51:04.563Z,483.75
2023-05-17T08:52:04.561Z,500.62
2023-05-17T08:53:04.626Z,523.12
2023-05-17T08:54:04.557Z,568.12
2023-05-17T08:55:04.590Z,1411.88
2023-05-17T08:56:04.527Z,804.38
2023-05-17T08:57:04.513Z,618.75
2023-05-17T08:58:04.546Z,573.75
2023-05-17T08:59:04.514Z,528.75
2023-05-17T09:00:04.523Z,489.38
2023-05-17T09:01:04.523Z,450.00
2023-05-17T09:02:04.577Z,427.50
2023-05-17T09:03:04.653Z,410.62
2023-05-17T09:04:04.462Z,416.25
2023-05-17T09:05:04.531Z,416.25
2023-05-17T09:06:04.551Z,427.50
2023-05-17T09:07:04.534Z,444.38
2023-05-17T09:08:04.451Z,461.25
2023-05-17T09:09:04.538Z,534.38
2023-05-17T09:10:04.464Z,556.88
2023-05-17T09:11:04.454Z,534.38
2023-05-17T09:12:04.450Z,528.75
2023-05-17T09:13:04.424Z,511.88
2023-05-17T09:14:04.419Z,495.00
2023-05-17T09:15:04.470Z,495.00
2023-05-17T09:16:04.405Z,489.38
2023-05-17T09:17:04.416Z,489.38
2023-05-17T09:18:04.445Z,495.00
2023-05-17T09:19:04.753Z,551.25
2023-05-17T09:20:04.570Z,601.88
2023-05-17T09:21:04.377Z,573.75
2023-05-17T09:22:04.363Z,551.25
2023-05-17T09:23:04.403Z,534.38
2023-05-17T09:24:07.439Z,545.62
2023-05-17T09:25:05.362Z,568.12
2023-05-17T09:26:04.366Z,669.38
2023-05-17T09:27:04.371Z,556.88
2023-05-17T09:28:04.367Z,562.50
2023-05-17T09:29:04.364Z,562.50
2023-05-17T09:30:04.337Z,556.88
2023-05-17T09:31:04.382Z,590.62
2023-05-17T09:32:04.327Z,1861.88
2023-05-17T09:33:04.304Z,759.38
2023-05-17T09:34:04.372Z,736.88
2023-05-17T09:35:04.301Z,720.00
2023-05-17T09:36:04.313Z,731.25
2023-05-17T09:37:04.310Z,1788.75
2023-05-17T09:38:04.294Z,1125.00
2023-05-17T09:39:04.301Z,675.00
2023-05-17T09:40:04.295Z,708.75
2023-05-17T09:41:04.291Z,956.25
2023-05-17T09:42:04.254Z,697.50
2023-05-17T09:43:04.264Z,697.50
2023-05-17T09:44:04.245Z,770.62
2023-05-17T09:45:04.262Z,939.38
2023-05-17T09:46:04.259Z,849.38
2023-05-17T09:47:04.234Z,821.25
2023-05-17T09:48:04.296Z,871.88
2023-05-17T09:49:04.375Z,2761.88
2023-05-17T09:50:04.270Z,2491.88
2023-05-17T09:51:05.014Z,883.12
2023-05-17T09:52:04.204Z,731.25
2023-05-17T09:53:04.204Z,697.50
2023-05-17T09:54:04.173Z,641.25
2023-05-17T09:55:04.305Z,579.38
2023-05-17T09:56:04.160Z,545.62
2023-05-17T09:57:05.231Z,523.12
2023-05-17T09:58:04.243Z,545.62
2023-05-17T09:59:04.145Z,669.38
2023-05-17T10:00:04.129Z,2120.62
2023-05-17T10:01:04.193Z,2188.12
2023-05-17T10:02:04.155Z,2233.12
2023-05-17T10:03:04.217Z,2176.88
2023-05-17T10:04:04.299Z,1687.50
2023-05-17T10:05:04.180Z,843.75
2023-05-17T10:06:04.144Z,720.00
2023-05-17T10:07:04.187Z,658.12
2023-05-17T10:08:04.085Z,635.62
2023-05-17T10:09:04.092Z,601.88
2023-05-17T10:10:04.069Z,590.62
2023-05-17T10:11:04.139Z,568.12
2023-05-17T10:12:04.084Z,556.88
2023-05-17T10:13:04.051Z,534.38
2023-05-17T10:14:04.036Z,517.50
2023-05-17T10:15:04.051Z,517.50
2023-05-17T10:16:04.081Z,495.00
2023-05-17T10:17:04.034Z,500.62
2023-05-17T10:18:04.101Z,562.50
2023-05-17T10:19:04.138Z,691.88
2023-05-17T10:20:04.222Z,585.00
2023-05-17T10:21:04.561Z,2109.38
2023-05-17T10:22:18.734Z,2182.50
2023-05-17T10:23:06.016Z,1243.12
2023-05-17T10:24:04.094Z,798.75
2023-05-17T10:25:04.041Z,866.25
2023-05-17T10:26:03.964Z,658.12
2023-05-17T10:27:03.980Z,579.38
2023-05-17T10:28:03.988Z,545.62
2023-05-17T10:29:03.973Z,528.75
2023-05-17T10:30:04.561Z,506.25
2023-05-17T10:31:03.944Z,506.25
2023-05-17T10:32:03.938Z,545.62
2023-05-17T10:33:04.079Z,1440.00
2023-05-17T10:34:04.058Z,2340.00
2023-05-17T10:35:11.157Z,2328.75
2023-05-17T10:36:05.988Z,2306.25
2023-05-17T10:37:03.907Z,2368.12
2023-05-17T10:38:03.886Z,2390.62
2023-05-17T10:39:03.928Z,2379.38
2023-05-17T10:40:03.902Z,2328.75
2023-05-17T10:41:03.896Z,2340.00
2023-05-17T10:42:14.337Z,1125.00
2023-05-17T10:43:05.859Z,810.00
2023-05-17T10:44:03.869Z,736.88
2023-05-17T10:45:03.873Z,714.38
2023-05-17T10:46:03.876Z,686.25
2023-05-17T10:47:03.856Z,663.75
2023-05-17T10:48:03.922Z,663.75
2023-05-17T10:49:03.909Z,2581.88
2023-05-17T10:50:03.861Z,883.12
2023-05-17T10:51:03.850Z,675.00
2023-05-17T10:52:03.841Z,646.88
2023-05-17T10:53:03.886Z,641.25
2023-05-17T10:54:03.843Z,618.75
2023-05-17T10:55:03.821Z,556.88
2023-05-17T10:56:03.802Z,551.25
2023-05-17T10:57:03.809Z,511.88
2023-05-17T10:58:03.781Z,528.75
2023-05-17T10:59:03.822Z,2244.38
2023-05-17T11:00:03.780Z,1029.38
2023-05-17T11:01:03.766Z,1783.12
2023-05-17T11:02:04.841Z,2233.12
2023-05-17T11:03:03.856Z,2261.25
2023-05-17T11:04:03.798Z,2401.88
2023-05-17T11:05:03.884Z,945.00
2023-05-17T11:06:03.935Z,967.50
2023-05-17T11:07:05.158Z,1659.38
2023-05-17T11:08:04.757Z,1980.00
2023-05-17T11:09:03.761Z,2143.12
2023-05-17T11:10:03.770Z,2103.75
2023-05-17T11:11:03.761Z,2064.38
2023-05-17T11:12:03.708Z,2041.88
2023-05-17T11:13:03.726Z,2193.75
2023-05-17T11:14:03.708Z,2250.00
2023-05-17T11:15:03.991Z,883.12
2023-05-17T11:16:04.800Z,742.50
2023-05-17T11:17:03.797Z,720.00
2023-05-17T11:18:03.911Z,720.00
2023-05-17T11:19:04.034Z,714.38
2023-05-17T11:20:04.826Z,731.25
2023-05-17T11:21:04.066Z,826.88
2023-05-17T11:22:03.703Z,1715.62
2023-05-17T11:23:03.748Z,1068.75
2023-05-17T11:24:03.775Z,2002.50
2023-05-17T11:25:04.764Z,2041.88
2023-05-17T11:26:15.263Z,2143.12
2023-05-17T11:27:06.056Z,2120.62
2023-05-17T11:28:03.659Z,2238.75
2023-05-17T11:29:03.659Z,2261.25
2023-05-17T11:30:03.598Z,2351.25
2023-05-17T11:31:03.601Z,2368.12
2023-05-17T11:32:03.588Z,2565.00
2023-05-17T11:33:04.538Z,2548.12
2023-05-17T11:34:03.577Z,2497.50
2023-05-17T11:35:03.547Z,2491.88
2023-05-17T11:36:03.578Z,939.38
2023-05-17T11:37:03.534Z,1800.00
2023-05-17T11:38:03.557Z,2581.88
2023-05-17T11:39:08.244Z,883.12
2023-05-17T11:40:04.524Z,731.25
2023-05-17T11:41:04.742Z,2340.00
2023-05-17T11:42:03.557Z,2368.12
2023-05-17T11:43:03.498Z,2463.75
2023-05-17T11:44:03.544Z,2475.00
2023-05-17T11:45:03.507Z,2430.00
2023-05-17T11:46:03.560Z,838.12
2023-05-17T11:47:03.542Z,720.00
2023-05-17T11:48:03.563Z,703.12
2023-05-17T11:49:03.461Z,714.38
2023-05-17T11:50:03.477Z,787.50
2023-05-17T11:51:03.462Z,1642.50
2023-05-17T11:52:03.440Z,1957.50
2023-05-17T11:53:03.449Z,1029.38
2023-05-17T11:54:03.475Z,810.00
2023-05-17T11:55:03.438Z,753.75
2023-05-17T11:56:04.435Z,759.38
2023-05-17T11:57:03.414Z,2385.00
2023-05-17T11:58:03.485Z,2362.50
2023-05-17T11:59:03.850Z,793.12
2023-05-17T12:00:03.451Z,748.12
2023-05-17T12:01:03.390Z,646.88
2023-05-17T12:02:03.373Z,675.00
2023-05-17T12:03:04.113Z,1040.62
2023-05-17T12:04:03.494Z,720.00
2023-05-17T12:05:03.870Z,1850.62
2023-05-17T12:06:03.597Z,866.25
2023-05-17T12:07:03.436Z,2300.62
2023-05-17T12:08:03.404Z,2458.12
2023-05-17T12:09:03.330Z,1698.75
2023-05-17T12:10:03.444Z,787.50
2023-05-17T12:11:03.339Z,697.50
2023-05-17T12:12:03.319Z,641.25
2023-05-17T12:13:03.305Z,613.12
2023-05-17T12:14:03.355Z,630.00
2023-05-17T12:15:03.309Z,652.50
2023-05-17T12:16:03.332Z,703.12
2023-05-17T12:17:03.313Z,759.38
2023-05-17T12:18:04.320Z,1766.25
2023-05-17T12:19:03.453Z,804.38
2023-05-17T12:20:03.326Z,928.12
2023-05-17T12:21:03.289Z,2390.62
2023-05-17T12:22:03.269Z,753.75
2023-05-17T12:23:03.432Z,697.50
2023-05-17T12:24:03.452Z,759.38
2023-05-17T12:25:03.304Z,691.88
2023-05-17T12:26:03.251Z,652.50
2023-05-17T12:27:03.229Z,635.62
2023-05-17T12:28:03.225Z,658.12
2023-05-17T12:29:03.213Z,635.62
2023-05-17T12:30:03.212Z,646.88
2023-05-17T12:31:03.202Z,675.00
2023-05-17T12:32:03.293Z,686.25
2023-05-17T12:33:03.328Z,753.75
2023-05-17T12:34:03.411Z,2092.50
2023-05-17T12:35:03.165Z,1614.38
2023-05-17T12:36:03.179Z,2103.75
2023-05-17T12:37:03.271Z,2086.88
2023-05-17T12:38:03.177Z,1980.00
2023-05-17T12:39:03.821Z,2171.25
2023-05-17T12:40:03.160Z,703.12
2023-05-17T12:41:03.172Z,691.88
2023-05-17T12:42:03.147Z,759.38